Havasu City, Arizona
Current Conditions -  °F | °C
As of 2:35 PM on Tuesday 21 Oct 2014 (Local Time) from KHII Reporting Station
Clear Clear  
Wind Chill: 91°   Ceiling: Unl
Heat Index: 91°   Visibility: 10mi
Dew Point: 46°   Wind: 10mph
Humidity: 21%   Direction: 180°S
Pressure: 29.77"   Gusts: NA
Location:  34.6022°N, 113.772°W
Report Text: KHII 212135Z AUTO 18009KT 10SM CLR 33/08 A2977 RMK AO2
Loading
Personal Weather Stations






























Interactive Weather Map
Tropical Storm Tracking
New forecast layout! Learn more

10-Day Weather Forecast

Advertisements
Track Severe Weather on mobile